sensor_id;sensor_type;location;lat;lon;timestamp;temperature;humidity
3998;DHT22;61314;53.444;9.902;2022-12-18T04:38:12;-5.20;99.90
3998;DHT22;61314;53.444;9.902;2022-12-18T04:40:38;-5.20;99.90
3998;DHT22;61314;53.444;9.902;2022-12-18T04:43:07;-5.30;99.90
3998;DHT22;61314;53.444;9.902;2022-12-18T05:10:09;-5.40;99.90
3998;DHT22;61314;53.444;9.902;2022-12-18T05:12:36;-5.50;99.90
3998;DHT22;61314;53.444;9.902;2022-12-18T05:15:22;-5.50;99.90
3998;DHT22;61314;53.444;9.902;2022-12-18T05:17:49;-5.50;99.90
3998;DHT22;61314;53.444;9.902;2022-12-18T06:56:03;-5.90;99.90
3998;DHT22;61314;53.444;9.902;2022-12-18T06:58:35;-6.00;99.90
3998;DHT22;61314;53.444;9.902;2022-12-18T07:01:04;-6.00;99.90
3998;DHT22;61314;53.444;9.902;2022-12-18T07:03:32;-6.00;99.90
3998;DHT22;61314;53.444;9.902;2022-12-18T07:05:58;-6.00;99.90
3998;DHT22;61314;53.444;9.902;2022-12-18T07:08:25;-6.00;99.90
3998;DHT22;61314;53.444;9.902;2022-12-18T07:10:52;-6.00;99.90
3998;DHT22;61314;53.444;9.902;2022-12-18T07:13:22;-6.00;99.90
3998;DHT22;61314;53.444;9.902;2022-12-18T07:15:49;-6.00;99.90
3998;DHT22;61314;53.444;9.902;2022-12-18T07:18:15;-6.00;99.90
3998;DHT22;61314;53.444;9.902;2022-12-18T07:20:42;-6.00;99.90
3998;DHT22;61314;53.444;9.902;2022-12-18T07:23:09;-6.00;99.90
3998;DHT22;61314;53.444;9.902;2022-12-18T07:25:36;-6.00;99.90
3998;DHT22;61314;53.444;9.902;2022-12-18T07:28:04;-6.00;99.90
3998;DHT22;61314;53.444;9.902;2022-12-18T07:30:30;-6.00;99.90
3998;DHT22;61314;53.444;9.902;2022-12-18T07:32:57;-6.00;99.90
3998;DHT22;61314;53.444;9.902;2022-12-18T07:35:23;-6.00;99.90
3998;DHT22;61314;53.444;9.902;2022-12-18T07:37:51;-6.00;99.90
3998;DHT22;61314;53.444;9.902;2022-12-18T07:40:17;-5.90;99.90
3998;DHT22;61314;53.444;9.902;2022-12-18T07:42:44;-6.00;99.90
3998;DHT22;61314;53.444;9.902;2022-12-18T07:45:10;-5.90;99.90
3998;DHT22;61314;53.444;9.902;2022-12-18T07:47:37;-6.00;99.90
3998;DHT22;61314;53.444;9.902;2022-12-18T07:50:05;-6.00;99.90
3998;DHT22;61314;53.444;9.902;2022-12-18T07:52:32;-5.90;99.90
3998;DHT22;61314;53.444;9.902;2022-12-18T07:54:59;-5.90;99.90
3998;DHT22;61314;53.444;9.902;2022-12-18T07:57:26;-5.90;99.90
3998;DHT22;61314;53.444;9.902;2022-12-18T08:00:13;-5.90;99.90
3998;DHT22;61314;53.444;9.902;2022-12-18T08:02:39;-5.90;99.90
3998;DHT22;61314;53.444;9.902;2022-12-18T08:05:08;-5.90;99.90
3998;DHT22;61314;53.444;9.902;2022-12-18T08:07:34;-5.90;99.90
3998;DHT22;61314;53.444;9.902;2022-12-18T08:10:01;-5.90;99.90
3998;DHT22;61314;53.444;9.902;2022-12-18T08:12:27;-5.90;99.90
3998;DHT22;61314;53.444;9.902;2022-12-18T08:14:54;-5.90;99.90
3998;DHT22;61314;53.444;9.902;2022-12-18T08:17:20;-5.90;99.90
3998;DHT22;61314;53.444;9.902;2022-12-18T08:19:47;-5.90;99.90
3998;DHT22;61314;53.444;9.902;2022-12-18T08:22:13;-5.80;99.90
3998;DHT22;61314;53.444;9.902;2022-12-18T08:24:40;-5.80;99.90
3998;DHT22;61314;53.444;9.902;2022-12-18T08:27:06;-5.80;99.90
3998;DHT22;61314;53.444;9.902;2022-12-18T08:29:53;-5.80;99.90
3998;DHT22;61314;53.444;9.902;2022-12-18T08:32:20;-5.80;99.90
3998;DHT22;61314;53.444;9.902;2022-12-18T08:34:46;-5.80;99.90
3998;DHT22;61314;53.444;9.902;2022-12-18T08:37:13;-5.80;99.90
3998;DHT22;61314;53.444;9.902;2022-12-18T08:39:39;-5.80;99.90
3998;DHT22;61314;53.444;9.902;2022-12-18T08:42:06;-5.80;99.90
3998;DHT22;61314;53.444;9.902;2022-12-18T08:44:51;-5.80;99.90
3998;DHT22;61314;53.444;9.902;2022-12-18T08:47:18;-5.80;99.90
3998;DHT22;61314;53.444;9.902;2022-12-18T08:49:44;-5.80;99.90
3998;DHT22;61314;53.444;9.902;2022-12-18T08:52:14;-5.70;99.90
3998;DHT22;61314;53.444;9.902;2022-12-18T08:54:40;-5.80;99.90
3998;DHT22;61314;53.444;9.902;2022-12-18T08:57:07;-5.70;99.90
3998;DHT22;61314;53.444;9.902;2022-12-18T08:59:33;-5.70;99.90
3998;DHT22;61314;53.444;9.902;2022-12-18T09:02:00;-5.70;99.90
3998;DHT22;61314;53.444;9.902;2022-12-18T09:04:27;-5.70;99.90
3998;DHT22;61314;53.444;9.902;2022-12-18T09:06:53;-5.70;99.90
3998;DHT22;61314;53.444;9.902;2022-12-18T09:09:20;-5.70;99.90
3998;DHT22;61314;53.444;9.902;2022-12-18T09:11:50;-5.60;99.90
3998;DHT22;61314;53.444;9.902;2022-12-18T09:14:16;-5.60;99.90
3998;DHT22;61314;53.444;9.902;2022-12-18T09:16:43;-5.60;99.90
3998;DHT22;61314;53.444;9.902;2022-12-18T09:19:10;-5.60;99.90
3998;DHT22;61314;53.444;9.902;2022-12-18T09:21:36;-5.50;99.90
3998;DHT22;61314;53.444;9.902;2022-12-18T09:24:08;-5.50;99.90
3998;DHT22;61314;53.444;9.902;2022-12-18T09:26:37;-5.50;99.90
3998;DHT22;61314;53.444;9.902;2022-12-18T09:29:05;-5.50;99.90
3998;DHT22;61314;53.444;9.902;2022-12-18T09:31:38;-5.50;99.90
3998;DHT22;61314;53.444;9.902;2022-12-18T09:34:05;-5.40;99.90
3998;DHT22;61314;53.444;9.902;2022-12-18T09:36:32;-5.40;99.90
3998;DHT22;61314;53.444;9.902;2022-12-18T09:38:58;-5.40;99.90
3998;DHT22;61314;53.444;9.902;2022-12-18T09:41:51;-5.30;99.90
3998;DHT22;61314;53.444;9.902;2022-12-18T09:44:23;-5.30;99.90
3998;DHT22;61314;53.444;9.902;2022-12-18T09:46:57;-5.20;99.90
3998;DHT22;61314;53.444;9.902;2022-12-18T09:49:28;-5.20;99.90
3998;DHT22;61314;53.444;9.902;2022-12-18T09:52:02;-5.20;99.90
3998;DHT22;61314;53.444;9.902;2022-12-18T09:54:35;-5.10;99.90
